createdAt,value
2018-09-04T00:02:28.577Z,100058.54
2018-09-04T00:04:59.519Z,100061.92
2018-09-04T00:07:30.476Z,100063.63
2018-09-04T00:10:01.495Z,100058.38
2018-09-04T00:12:32.524Z,100052.19
2018-09-04T00:15:03.493Z,100058.25
2018-09-04T00:17:34.497Z,100059.80
2018-09-04T00:20:06.001Z,100056.97
2018-09-04T00:22:37.234Z,100049.30
2018-09-04T00:25:08.520Z,100050.28
2018-09-04T00:27:40.381Z,100052.11
2018-09-04T00:30:11.454Z,100049.25
2018-09-04T00:32:42.488Z,100052.69
2018-09-04T00:35:13.518Z,100045.08
2018-09-04T00:37:44.518Z,100049.41
2018-09-04T00:40:15.474Z,100053.45
2018-09-04T00:42:46.521Z,100054.45
2018-09-04T00:45:17.453Z,100052.95
2018-09-04T00:47:48.485Z,100052.45
2018-09-04T00:50:19.550Z,100052.93
2018-09-04T00:52:50.521Z,100053.61
2018-09-04T00:55:21.478Z,100055.92
2018-09-04T00:57:52.492Z,100057.98
2018-09-04T01:00:25.704Z,100057.64
2018-09-04T01:02:57.425Z,100055.62
2018-09-04T01:05:28.728Z,100054.52
2018-09-04T01:07:59.573Z,100061.32
2018-09-04T01:10:30.578Z,100060.98
2018-09-04T01:13:01.525Z,100051.11
2018-09-04T01:15:32.551Z,100059.30
2018-09-04T01:18:03.545Z,100056.66
2018-09-04T01:20:34.595Z,100060.81
2018-09-04T01:23:06.020Z,100060.30
2018-09-04T01:25:37.289Z,100050.67
2018-09-04T01:28:09.506Z,100054.78
2018-09-04T01:30:40.501Z,100051.45
2018-09-04T01:33:11.505Z,100053.05
2018-09-04T01:35:42.485Z,100053.97
2018-09-04T01:38:13.549Z,100060.72
2018-09-04T01:40:44.481Z,100057.87
2018-09-04T01:43:15.455Z,100061.73
2018-09-04T01:45:46.509Z,100058.06
2018-09-04T01:48:17.525Z,100058.14
2018-09-04T01:50:48.489Z,100065.33
2018-09-04T01:53:19.532Z,100064.66
2018-09-04T01:55:50.509Z,100067.16
2018-09-04T01:58:21.516Z,100065.73
2018-09-04T02:00:52.530Z,100075.53
2018-09-04T02:03:23.508Z,100072.03
2018-09-04T02:05:54.519Z,100075.34
2018-09-04T02:08:25.622Z,100072.67
2018-09-04T02:10:56.504Z,100063.22
2018-09-04T02:13:27.526Z,100067.80
2018-09-04T02:15:58.501Z,100072.53
2018-09-04T02:18:29.497Z,100068.86
2018-09-04T02:21:00.495Z,100062.96
2018-09-04T02:23:31.462Z,100066.87
2018-09-04T02:26:02.531Z,100064.19
2018-09-04T02:28:33.554Z,100063.80
2018-09-04T02:31:04.537Z,100063.44
2018-09-04T02:33:35.526Z,100060.34
2018-09-04T02:36:06.541Z,100065.61
2018-09-04T02:38:37.510Z,100064.01
2018-09-04T02:41:09.314Z,100062.88
2018-09-04T02:43:40.553Z,100056.83
2018-09-04T02:46:11.525Z,100053.13
2018-09-04T02:48:42.482Z,100053.66
2018-09-04T02:51:13.492Z,100057.39
2018-09-04T02:53:44.490Z,100053.70
2018-09-04T02:56:15.509Z,100058.53
2018-09-04T02:58:46.549Z,100056.19
2018-09-04T03:01:17.478Z,100056.00
2018-09-04T03:03:48.510Z,100059.00
2018-09-04T03:06:19.518Z,100056.31
2018-09-04T03:08:50.503Z,100059.33
2018-09-04T03:11:21.597Z,100054.31
2018-09-04T03:13:52.526Z,100056.02
2018-09-04T03:16:23.498Z,100062.70
2018-09-04T03:18:54.494Z,100065.67
2018-09-04T03:21:25.506Z,100066.89
2018-09-04T03:23:56.501Z,100063.06
2018-09-04T03:26:27.495Z,100068.42
2018-09-04T03:28:58.505Z,100059.05
2018-09-04T03:31:29.767Z,100060.06
2018-09-04T03:34:00.593Z,100063.21
2018-09-04T03:36:31.513Z,100062.23
2018-09-04T03:39:02.559Z,100060.50
2018-09-04T03:41:33.533Z,100064.23
2018-09-04T03:44:04.517Z,100062.05
2018-09-04T03:46:35.525Z,100063.86
2018-09-04T03:49:07.279Z,100072.03
2018-09-04T03:51:37.404Z,100072.55
2018-09-04T03:54:08.632Z,100073.09
2018-09-04T03:56:39.587Z,100071.58
2018-09-04T03:59:10.510Z,100080.44
2018-09-04T04:01:41.487Z,100084.39
2018-09-04T04:04:12.528Z,100083.12
2018-09-04T04:06:43.556Z,100084.37
2018-09-04T04:09:14.521Z,100083.53
2018-09-04T04:11:45.501Z,100087.44
2018-09-04T04:14:16.524Z,100090.77
2018-09-04T04:16:47.508Z,100093.80
2018-09-04T04:19:18.525Z,100088.59
2018-09-04T04:21:49.522Z,100088.76
2018-09-04T04:24:20.497Z,100096.09
2018-09-04T04:26:51.506Z,100093.75
2018-09-04T04:29:22.505Z,100095.06
2018-09-04T04:31:53.462Z,100089.70
2018-09-04T04:34:24.495Z,100093.70
2018-09-04T04:36:55.494Z,100095.70
2018-09-04T04:39:26.498Z,100095.99
2018-09-04T04:41:57.499Z,100097.66
2018-09-04T04:44:28.565Z,100096.80
2018-09-04T04:46:59.480Z,100092.45
2018-09-04T04:49:30.582Z,100096.59
2018-09-04T04:52:01.736Z,100086.35
2018-09-04T04:54:32.580Z,100082.60
2018-09-04T04:57:03.521Z,100090.03
2018-09-04T04:59:34.491Z,100090.03
2018-09-04T05:02:05.561Z,100088.06
2018-09-04T05:04:36.489Z,100090.75
2018-09-04T05:07:07.519Z,100094.95
2018-09-04T05:09:38.526Z,100096.85
2018-09-04T05:12:09.510Z,100101.84
2018-09-04T05:14:40.566Z,100102.89
2018-09-04T05:17:11.569Z,100100.76
2018-09-04T05:19:42.518Z,100100.30
2018-09-04T05:22:13.554Z,100103.91
2018-09-04T05:24:44.503Z,100101.59
2018-09-04T05:27:15.535Z,100102.30
2018-09-04T05:29:46.596Z,100098.94
2018-09-04T05:32:23.765Z,100103.81
2018-09-04T05:34:54.601Z,100108.50
2018-09-04T05:37:25.664Z,100109.02
2018-09-04T05:39:56.513Z,100112.81
2018-09-04T05:43:01.857Z,100119.69
2018-09-04T05:45:33.493Z,100116.55
2018-09-04T05:48:07.792Z,100125.59
2018-09-04T05:50:38.695Z,100123.80
2018-09-04T05:53:09.791Z,100125.59
2018-09-04T05:55:40.601Z,100123.11
2018-09-04T05:58:11.476Z,100126.24
2018-09-04T06:00:48.330Z,100132.97
2018-09-04T06:03:19.526Z,100132.44
2018-09-04T06:05:50.493Z,100130.38
2018-09-04T06:08:21.465Z,100134.84
2018-09-04T06:10:52.498Z,100136.20
2018-09-04T06:13:23.504Z,100147.08
2018-09-04T06:15:54.626Z,100150.59
2018-09-04T06:18:25.521Z,100155.03
2018-09-04T06:20:56.561Z,100164.25
2018-09-04T06:23:27.510Z,100155.39
2018-09-04T06:25:58.509Z,100150.23
2018-09-04T06:28:29.565Z,100152.30
2018-09-04T06:31:00.515Z,100148.86
2018-09-04T06:33:31.489Z,100147.61
2018-09-04T06:36:02.498Z,100147.31
2018-09-04T06:38:33.494Z,100144.32
2018-09-04T06:41:04.521Z,100139.02
2018-09-04T06:43:35.499Z,100140.06
2018-09-04T06:46:06.553Z,100133.30
2018-09-04T06:48:37.526Z,100140.69
2018-09-04T06:51:08.465Z,100138.49
2018-09-04T06:53:39.473Z,100146.86
2018-09-04T06:56:10.482Z,100141.09
2018-09-04T06:58:41.479Z,100146.79
2018-09-04T07:01:12.482Z,100145.53
2018-09-04T07:03:43.452Z,100146.69
2018-09-04T07:06:14.525Z,100152.61
2018-09-04T07:08:45.497Z,100152.27
2018-09-04T07:11:16.541Z,100148.33
2018-09-04T07:13:47.481Z,100143.32
2018-09-04T07:16:18.523Z,100142.36
2018-09-04T07:18:49.506Z,100139.26
2018-09-04T07:21:20.500Z,100137.73
2018-09-04T07:23:51.494Z,100145.03
2018-09-04T07:26:22.569Z,100148.89
2018-09-04T07:28:53.510Z,100149.47
2018-09-04T07:31:24.513Z,100153.16
2018-09-04T07:33:55.505Z,100156.48
2018-09-04T07:36:26.604Z,100159.37
2018-09-04T07:38:57.497Z,100156.03
2018-09-04T07:41:28.502Z,100153.95
2018-09-04T07:43:59.480Z,100147.23
2018-09-04T07:46:30.493Z,100150.88
2018-09-04T07:49:01.531Z,100145.75
2018-09-04T07:51:32.577Z,100147.43
2018-09-04T07:54:03.473Z,100144.42
2018-09-04T07:56:34.550Z,100145.20
2018-09-04T07:59:05.534Z,100143.66
2018-09-04T08:01:36.557Z,100143.09
2018-09-04T08:04:07.511Z,100141.41
2018-09-04T08:06:39.554Z,100147.42
2018-09-04T08:09:10.582Z,100143.34
2018-09-04T08:11:41.519Z,100145.84
2018-09-04T08:14:12.512Z,100140.13
2018-09-04T08:16:43.483Z,100142.14
2018-09-04T08:19:14.499Z,100127.39
2018-09-04T08:21:45.485Z,100121.95
2018-09-04T08:24:16.468Z,100117.02
2018-09-04T08:26:47.453Z,100124.56
2018-09-04T08:29:18.418Z,100126.27
2018-09-04T08:31:49.453Z,100124.91
2018-09-04T08:34:20.484Z,100130.94
2018-09-04T08:36:51.520Z,100124.33
2018-09-04T08:39:22.473Z,100120.31
2018-09-04T08:41:53.486Z,100126.73
2018-09-04T08:44:24.477Z,100120.05
2018-09-04T08:46:55.526Z,100115.52
2018-09-04T08:52:10.499Z,100112.64
2018-09-04T08:54:41.476Z,100103.03
2018-09-04T08:57:13.414Z,100105.24
2018-09-04T08:59:44.485Z,100109.64
2018-09-04T09:02:15.468Z,100110.39
2018-09-04T09:04:46.511Z,100109.23
2018-09-04T09:07:17.524Z,100108.09
2018-09-04T09:09:48.554Z,100105.47
2018-09-04T09:12:19.513Z,100101.66
2018-09-04T09:14:50.493Z,100100.38
2018-09-04T09:17:21.542Z,100091.64
2018-09-04T09:19:52.505Z,100094.13
2018-09-04T09:22:23.503Z,100092.78
2018-09-04T09:24:54.493Z,100095.30
2018-09-04T09:27:25.517Z,100095.89
2018-09-04T09:29:57.382Z,100094.02
2018-09-04T09:32:28.492Z,100090.54
2018-09-04T09:34:59.501Z,100086.88
2018-09-04T09:37:30.509Z,100089.77
2018-09-04T09:40:01.514Z,100092.25
2018-09-04T09:42:32.517Z,100090.66
2018-09-04T09:45:03.513Z,100087.16
2018-09-04T09:47:34.542Z,100083.77
2018-09-04T09:50:05.525Z,100087.20
2018-09-04T09:52:36.616Z,100085.84
2018-09-04T09:55:08.662Z,100082.06
2018-09-04T09:57:39.737Z,100094.00
2018-09-04T10:00:15.772Z,100084.11
2018-09-04T10:02:51.052Z,100077.53
2018-09-04T10:05:22.367Z,100077.48
2018-09-04T10:07:53.692Z,100079.19
2018-09-04T10:10:24.493Z,100078.36
2018-09-04T10:12:55.501Z,100077.19
2018-09-04T10:15:26.521Z,100077.34
2018-09-04T10:17:57.505Z,100073.09
2018-09-04T10:20:28.520Z,100069.97
2018-09-04T10:22:59.538Z,100063.75
2018-09-04T10:25:30.543Z,100072.10
2018-09-04T10:28:01.488Z,100068.78
2018-09-04T10:30:32.537Z,100072.39
2018-09-04T10:33:03.517Z,100073.08
2018-09-04T10:35:34.509Z,100077.16
2018-09-04T10:38:05.534Z,100064.23
2018-09-04T10:40:41.473Z,100063.36
2018-09-04T10:43:12.501Z,100063.73
2018-09-04T10:45:48.772Z,100062.62
2018-09-04T10:48:26.513Z,100066.45
2018-09-04T10:50:57.489Z,100054.71
2018-09-04T10:53:28.521Z,100055.28
2018-09-04T10:55:59.517Z,100049.27
2018-09-04T10:58:30.649Z,100049.63
2018-09-04T11:01:01.924Z,100057.20
2018-09-04T11:03:33.034Z,100052.38
2018-09-04T11:06:04.297Z,100053.34
2018-09-04T11:08:35.446Z,100052.50
2018-09-04T11:11:06.507Z,100052.66
2018-09-04T11:13:37.496Z,100051.41
2018-09-04T11:16:08.489Z,100052.42
2018-09-04T11:18:39.488Z,100045.69
2018-09-04T11:21:10.444Z,100043.09
2018-09-04T11:23:41.525Z,100045.03
2018-09-04T11:26:12.489Z,100045.85
2018-09-04T11:28:50.461Z,100047.73
2018-09-04T11:31:22.408Z,100041.53
2018-09-04T11:33:53.470Z,100041.97
2018-09-04T11:36:24.718Z,100042.49
2018-09-04T11:38:55.562Z,100050.89
2018-09-04T11:41:26.647Z,100052.22
2018-09-04T11:43:57.571Z,100047.52
2018-09-04T11:46:28.514Z,100044.96
2018-09-04T11:48:59.509Z,100044.87
2018-09-04T11:51:30.514Z,100040.09
2018-09-04T11:54:01.563Z,100039.81
2018-09-04T11:56:36.353Z,100044.25
2018-09-04T11:59:07.455Z,100045.88
2018-09-04T12:01:40.843Z,100045.41
2018-09-04T12:04:11.600Z,100043.66
2018-09-04T12:06:42.590Z,100039.26
2018-09-04T12:09:13.533Z,100035.11
2018-09-04T12:11:48.378Z,100042.95
2018-09-04T12:14:19.425Z,100044.14
2018-09-04T12:16:50.641Z,100042.89
2018-09-04T12:19:21.527Z,100036.08
2018-09-04T12:21:52.475Z,100038.61
2018-09-04T12:24:23.511Z,100042.16
2018-09-04T12:26:54.505Z,100041.64
2018-09-04T12:29:25.577Z,100037.73
2018-09-04T12:31:56.505Z,100031.68
2018-09-04T12:34:27.521Z,100037.20
2018-09-04T12:36:58.561Z,100029.11
2018-09-04T12:39:29.572Z,100039.50
2018-09-04T12:42:00.568Z,100028.38
2018-09-04T12:44:31.607Z,100033.92
2018-09-04T12:47:02.665Z,100033.75
2018-09-04T12:49:33.521Z,100033.95
2018-09-04T12:52:04.558Z,100034.00
2018-09-04T12:54:35.516Z,100029.92
2018-09-04T12:57:06.484Z,100026.87
2018-09-04T12:59:37.543Z,100025.95
2018-09-04T13:02:08.527Z,100018.41
2018-09-04T13:04:40.225Z,100026.34
2018-09-04T13:07:56.481Z,100034.64
2018-09-04T13:10:27.458Z,100026.83
2018-09-04T13:12:58.523Z,100018.47
2018-09-04T13:15:29.490Z,100022.89
2018-09-04T13:18:00.514Z,100016.19
2018-09-04T13:20:31.594Z,100017.49
2018-09-04T13:23:02.497Z,100017.64
2018-09-04T13:25:33.486Z,100014.52
2018-09-04T13:28:05.329Z,100013.73
2018-09-04T13:30:36.394Z,100009.90
2018-09-04T13:33:08.019Z,100017.48
2018-09-04T13:35:39.459Z,100013.30
2018-09-04T13:38:11.475Z,100001.41
2018-09-04T13:40:42.489Z,100004.45
2018-09-04T13:43:13.461Z,99997.92
2018-09-04T13:45:44.528Z,100000.64
2018-09-04T13:48:15.510Z,100002.44
2018-09-04T13:50:46.485Z,99999.93
2018-09-04T13:53:17.757Z,100000.67
2018-09-04T13:55:48.651Z,100003.55
2018-09-04T13:58:19.513Z,99994.89
2018-09-04T14:00:50.544Z,99994.32
2018-09-04T14:03:21.527Z,100002.40
2018-09-04T14:05:52.505Z,99998.67
2018-09-04T14:08:23.533Z,99995.27
2018-09-04T14:10:54.559Z,99995.05
2018-09-04T14:13:29.784Z,99995.20
2018-09-04T14:16:03.634Z,99985.36
2018-09-04T14:18:35.204Z,99983.36
2018-09-04T14:21:06.514Z,100003.52
2018-09-04T14:23:37.493Z,99994.12
2018-09-04T14:26:08.497Z,99990.59
2018-09-04T14:28:40.967Z,99990.36
2018-09-04T14:31:10.517Z,99989.02
2018-09-04T14:33:41.598Z,99990.13
2018-09-04T14:36:12.676Z,99993.54
2018-09-04T14:41:09.611Z,99987.13
2018-09-04T14:44:45.540Z,99985.95
2018-09-04T14:47:16.521Z,99981.77
2018-09-04T14:49:48.518Z,99991.53
2018-09-04T14:52:19.502Z,99988.99
2018-09-04T14:54:50.499Z,99985.66
2018-09-04T14:57:21.517Z,99974.88
2018-09-04T14:59:52.567Z,99983.63
2018-09-04T15:02:23.496Z,99980.35
2018-09-04T15:04:54.482Z,99989.58
2018-09-04T15:07:25.517Z,99990.88
2018-09-04T15:09:56.475Z,99987.19
2018-09-04T15:12:27.493Z,99995.73
2018-09-04T15:14:58.547Z,99987.88
2018-09-04T15:17:29.585Z,99988.72
2018-09-04T15:20:00.538Z,99996.88
2018-09-04T15:22:31.828Z,100001.70
2018-09-04T15:25:02.740Z,100008.16
2018-09-04T15:27:33.677Z,100003.46
2018-09-04T15:30:04.633Z,100010.27
2018-09-04T15:32:35.675Z,100019.66
2018-09-04T15:35:06.689Z,100013.45
2018-09-04T15:37:37.832Z,100016.28
2018-09-04T15:40:19.345Z,100019.76
2018-09-04T15:42:51.346Z,100019.44
2018-09-04T15:45:26.383Z,100014.86
2018-09-04T15:48:00.712Z,100010.86
2018-09-04T15:50:33.415Z,100013.66
2018-09-04T15:53:05.672Z,100014.11
2018-09-04T15:55:37.772Z,100007.58
2018-09-04T15:58:09.485Z,100011.64
2018-09-04T16:00:41.814Z,100002.05
2018-09-04T16:03:14.076Z,100005.66
2018-09-04T16:05:45.756Z,100008.09
2018-09-04T16:08:17.321Z,100003.33
2018-09-04T16:10:48.760Z,99998.12
2018-09-04T16:15:59.630Z,100007.05
2018-09-04T16:18:30.530Z,100009.20
2018-09-04T16:21:01.499Z,100007.19
2018-09-04T16:23:32.477Z,100011.36
2018-09-04T16:26:03.488Z,100014.95
2018-09-04T16:28:34.521Z,100023.78
2018-09-04T16:31:05.633Z,100016.65
2018-09-04T16:33:37.283Z,100021.78
2018-09-04T16:36:08.435Z,100019.71
2018-09-04T16:38:39.527Z,100020.42
2018-09-04T16:41:10.555Z,100018.00
2018-09-04T16:43:41.489Z,100021.26
2018-09-04T16:46:12.489Z,100016.80
2018-09-04T16:48:43.528Z,100024.02
2018-09-04T16:51:14.489Z,100036.87
2018-09-04T16:53:45.520Z,100044.04
2018-09-04T16:56:16.520Z,100044.97
2018-09-04T16:58:47.529Z,100055.75
2018-09-04T17:01:18.493Z,100060.54
2018-09-04T17:03:49.457Z,100070.52
2018-09-04T17:06:20.514Z,100077.37
2018-09-04T17:08:51.515Z,100070.49
2018-09-04T17:11:22.518Z,100077.05
2018-09-04T17:13:53.500Z,100081.33
2018-09-04T17:16:24.505Z,100081.54
2018-09-04T17:18:55.497Z,100073.56
2018-09-04T17:21:26.506Z,100080.70
2018-09-04T17:23:57.525Z,100075.70
2018-09-04T17:26:28.488Z,100075.23
2018-09-04T17:28:59.524Z,100081.55
2018-09-04T17:31:30.545Z,100080.92
2018-09-04T17:34:01.505Z,100083.48
2018-09-04T17:36:32.501Z,100079.80
2018-09-04T17:39:04.295Z,100080.64
2018-09-04T17:41:35.337Z,100083.14
2018-09-04T17:44:06.542Z,100084.34
2018-09-04T17:46:37.520Z,100083.44
2018-09-04T17:49:08.513Z,100092.56
2018-09-04T17:51:39.673Z,100090.31
2018-09-04T17:54:10.508Z,100096.53
2018-09-04T17:56:41.472Z,100098.28
2018-09-04T17:59:12.477Z,100097.55
2018-09-04T18:01:43.464Z,100097.23
2018-09-04T18:04:14.472Z,100097.57
2018-09-04T18:06:45.466Z,100094.55
2018-09-04T18:09:17.449Z,100099.11
2018-09-04T18:11:48.469Z,100095.17
2018-09-04T18:14:19.517Z,100094.33
2018-09-04T18:16:50.502Z,100097.13
2018-09-04T18:19:21.741Z,100092.88
2018-09-04T18:21:52.569Z,100093.28
2018-09-04T18:24:23.504Z,100094.63
2018-09-04T18:26:54.487Z,100095.47
2018-09-04T18:29:25.548Z,100094.42
2018-09-04T18:31:56.586Z,100098.77
2018-09-04T18:34:27.524Z,100095.77
2018-09-04T18:36:59.009Z,100097.63
2018-09-04T18:39:30.282Z,100102.30
2018-09-04T18:42:01.451Z,100105.42
2018-09-04T18:44:32.542Z,100115.90
2018-09-04T18:47:03.514Z,100114.03
2018-09-04T18:49:34.521Z,100117.67
2018-09-04T18:52:05.533Z,100119.44
2018-09-04T18:54:36.572Z,100122.11
2018-09-04T18:57:07.501Z,100120.88
2018-09-04T18:59:38.695Z,100126.25
2018-09-04T19:02:10.198Z,100128.86
2018-09-04T19:04:41.372Z,100134.15
2018-09-04T19:07:12.529Z,100133.95
2018-09-04T19:09:43.462Z,100133.74
2018-09-04T19:12:14.443Z,100129.18
2018-09-04T19:14:45.470Z,100134.77
2018-09-04T19:17:16.497Z,100132.09
2018-09-04T19:19:47.530Z,100133.13
2018-09-04T19:22:18.732Z,100133.95
2018-09-04T19:24:49.549Z,100138.00
2018-09-04T19:27:20.486Z,100137.17
2018-09-04T19:29:51.454Z,100140.49
2018-09-04T19:32:22.494Z,100141.84
2018-09-04T19:34:53.463Z,100145.33
2018-09-04T19:37:24.509Z,100139.73
2018-09-04T19:39:55.507Z,100144.38
2018-09-04T19:42:26.489Z,100138.84
2018-09-04T19:44:57.633Z,100146.59
2018-09-04T19:47:28.498Z,100143.91
2018-09-04T19:50:57.315Z,100144.63
2018-09-04T19:53:28.355Z,100142.68
2018-09-04T19:55:59.389Z,100147.73
2018-09-04T19:58:30.481Z,100150.72
2018-09-04T20:01:01.528Z,100152.70
2018-09-04T20:03:32.486Z,100141.26
2018-09-04T20:06:03.488Z,100148.53
2018-09-04T20:08:34.459Z,100147.91
2018-09-04T20:11:05.461Z,100153.78
2018-09-04T20:13:36.492Z,100158.92
2018-09-04T20:16:07.506Z,100160.02
2018-09-04T20:18:38.775Z,100165.56
2018-09-04T20:21:09.574Z,100158.14
2018-09-04T20:23:40.485Z,100161.95
2018-09-04T20:26:11.445Z,100159.91
2018-09-04T20:28:42.488Z,100157.65
2018-09-04T20:31:13.516Z,100162.87
2018-09-04T20:33:44.469Z,100159.27
2018-09-04T20:36:15.479Z,100162.31
2018-09-04T20:38:47.369Z,100169.40
2018-09-04T20:41:18.840Z,100166.15
2018-09-04T20:43:49.576Z,100169.68
2018-09-04T20:46:20.477Z,100171.63
2018-09-04T20:48:51.445Z,100168.78
2018-09-04T20:51:22.446Z,100172.70
2018-09-04T20:53:53.440Z,100171.95
2018-09-04T20:56:24.445Z,100177.08
2018-09-04T20:59:18.355Z,100175.89
2018-09-04T21:02:12.457Z,100175.73
2018-09-04T21:05:06.403Z,100177.77
2018-09-04T21:09:01.384Z,100177.38
2018-09-04T21:11:32.536Z,100181.14
2018-09-04T21:16:47.529Z,100177.31
2018-09-04T21:19:18.476Z,100184.19
2018-09-04T21:21:49.562Z,100176.47
2018-09-04T21:24:20.473Z,100181.25
2018-09-04T21:26:51.480Z,100173.34
2018-09-04T21:29:23.181Z,100185.73
2018-09-04T21:31:54.342Z,100184.33
2018-09-04T21:34:25.360Z,100189.26
2018-09-04T21:36:56.574Z,100190.34
2018-09-04T21:39:27.468Z,100187.86
2018-09-04T21:41:58.488Z,100185.17
2018-09-04T21:44:29.477Z,100188.22
2018-09-04T21:47:00.489Z,100188.46
2018-09-04T21:49:32.370Z,100179.86
2018-09-04T21:52:03.493Z,100180.25
2018-09-04T21:54:34.473Z,100183.38
2018-09-04T21:57:05.529Z,100184.58
2018-09-04T21:59:36.489Z,100174.83
2018-09-04T22:02:07.570Z,100178.66
2018-09-04T22:04:38.484Z,100182.49
2018-09-04T22:07:09.561Z,100176.28
2018-09-04T22:09:40.517Z,100172.20
2018-09-04T22:12:12.434Z,100175.38
2018-09-04T22:14:43.484Z,100163.89
2018-09-04T22:17:14.501Z,100165.53
2018-09-04T22:19:45.444Z,100175.33
2018-09-04T22:22:16.446Z,100175.33
2018-09-04T22:24:47.445Z,100172.35
2018-09-04T22:27:18.525Z,100179.73
2018-09-04T22:29:49.477Z,100183.56
2018-09-04T22:32:20.477Z,100173.87
2018-09-04T22:34:51.490Z,100171.98
2018-09-04T22:37:22.533Z,100182.42
2018-09-04T22:39:53.493Z,100188.05
2018-09-04T22:42:24.485Z,100180.45
2018-09-04T22:44:55.481Z,100184.06
2018-09-04T22:47:26.477Z,100176.42
2018-09-04T22:50:02.773Z,100181.52
2018-09-04T22:52:33.592Z,100181.28
2018-09-04T22:55:07.401Z,100180.14
2018-09-04T22:57:38.514Z,100175.98
2018-09-04T23:00:09.590Z,100170.73
2018-09-04T23:02:40.494Z,100173.66
2018-09-04T23:05:11.669Z,100174.16
2018-09-04T23:07:42.474Z,100167.95
2018-09-04T23:10:13.448Z,100171.98
2018-09-04T23:12:44.473Z,100179.06
2018-09-04T23:15:16.361Z,100174.70
2018-09-04T23:17:47.696Z,100183.43
2018-09-04T23:20:18.562Z,100182.23
2018-09-04T23:22:49.512Z,100194.07
2018-09-04T23:25:20.528Z,100185.08
2018-09-04T23:27:51.473Z,100185.84
2018-09-04T23:30:22.504Z,100187.18
2018-09-04T23:32:53.480Z,100187.38
2018-09-04T23:35:24.499Z,100179.09
2018-09-04T23:37:55.495Z,100176.80
2018-09-04T23:40:26.461Z,100182.47
2018-09-04T23:42:57.716Z,100184.84
2018-09-04T23:45:28.556Z,100185.84
2018-09-04T23:47:59.496Z,100180.28
2018-09-04T23:50:31.645Z,100187.87
2018-09-04T23:53:02.507Z,100185.03
2018-09-04T23:55:33.479Z,100184.46
2018-09-04T23:58:04.485Z,100180.52
